Time;durP1;ratioP1;P1;durP2;ratioP2;P2;SDS_P1;SDS_P2;PMS_P1;PMS_P2;Temp;Humidity;BMP_temperature;BMP_pressure;BME280_temperature;BME280_humidity;BME280_pressure;Samples;Min_cycle;Max_cycle;Signal;HPM_P1;HPM_P2
2021/03/24 00:05:33;;;;;;;0.93;0.83;;;11.30;99.90;;;;;;20778570;28;20228;-74
2021/03/24 00:15:36;;;;;;;1.10;0.87;;;10.90;99.90;;;;;;20779526;28;20888;-75
2021/03/24 00:25:40;;;;;;;1.40;1.20;;;11.00;99.90;;;;;;20776671;28;20230;-75
2021/03/24 00:35:43;;;;;;;0.80;0.80;;;11.10;99.90;;;;;;20777249;28;20205;-74
2021/03/24 00:45:46;;;;;;;1.43;1.33;;;11.00;99.90;;;;;;20775911;28;20226;-74
2021/03/24 00:55:50;;;;;;;4.03;1.23;;;10.90;99.90;;;;;;20777502;28;20256;-75
2021/03/24 01:05:53;;;;;;;0.30;0.30;;;10.90;99.90;;;;;;20776121;28;20560;-73
2021/03/24 01:15:56;;;;;;;0.83;0.83;;;11.00;99.90;;;;;;20773525;28;20473;-71
2021/03/24 01:25:59;;;;;;;0.77;0.77;;;10.90;99.90;;;;;;20773030;28;20333;-73
2021/03/24 01:36:04;;;;;;;1.37;1.30;;;10.90;99.90;;;;;;20768881;28;20198;-72
2021/03/24 01:46:33;;;;;;;2.07;1.00;;;11.00;99.90;;;;;;20773804;28;20586;-75
2021/03/24 01:56:39;;;;;;;1.43;1.33;;;11.00;99.90;;;;;;20721025;28;20281;-75
2021/03/24 02:06:47;;;;;;;2.83;1.77;;;10.90;99.90;;;;;;20673897;28;20241;-73
2021/03/24 02:16:52;;;;;;;0.60;0.50;;;10.80;99.90;;;;;;20649856;28;20199;-72
2021/03/24 02:27:05;;;;;;;1.50;0.63;;;10.80;99.90;;;;;;20774627;28;20341;-73
2021/03/24 02:37:11;;;;;;;1.80;1.67;;;10.90;99.90;;;;;;20785388;28;20198;-73
2021/03/24 02:47:16;;;;;;;0.20;0.10;;;10.70;99.90;;;;;;20788178;28;20222;-73
2021/03/24 02:57:20;;;;;;;1.37;0.73;;;10.70;99.90;;;;;;20787063;28;20222;-73
2021/03/24 03:07:28;;;;;;;1.23;0.53;;;10.60;99.90;;;;;;20659840;22;21082;-69
2021/03/24 03:17:36;;;;;;;0.67;0.57;;;10.50;99.90;;;;;;20701443;28;20198;-69
2021/03/24 03:27:42;;;;;;;5.10;1.67;;;10.40;99.90;;;;;;20703289;28;20341;-70
2021/03/24 03:37:46;;;;;;;1.50;0.57;;;10.20;99.90;;;;;;20649945;28;20257;-70
2021/03/24 03:47:50;;;;;;;1.33;1.23;;;10.00;99.90;;;;;;20605927;28;20249;-71
2021/03/24 03:57:55;;;;;;;0.20;0.10;;;10.50;99.90;;;;;;20620814;28;20191;-69
2021/03/24 04:08:02;;;;;;;0.87;0.87;;;10.30;99.90;;;;;;20737316;23;20796;-73
2021/03/24 04:18:12;;;;;;;0.20;0.20;;;10.20;99.90;;;;;;20790320;28;20201;-72
2021/03/24 04:28:20;;;;;;;0.87;0.40;;;9.90;99.90;;;;;;20859198;28;20225;-75
2021/03/24 04:38:28;;;;;;;1.90;1.80;;;10.00;99.90;;;;;;20857580;28;20664;-73
2021/03/24 04:48:36;;;;;;;1.47;1.13;;;9.70;99.90;;;;;;20857143;28;20247;-73
2021/03/24 04:58:42;;;;;;;0.50;0.47;;;9.20;99.90;;;;;;20852319;28;20200;-73
2021/03/24 05:08:46;;;;;;;1.50;0.70;;;9.00;99.90;;;;;;20782672;28;21054;-73
2021/03/24 05:18:53;;;;;;;0.73;0.70;;;8.90;99.90;;;;;;20793296;28;20198;-73
2021/03/24 05:29:01;;;;;;;3.10;0.87;;;8.90;99.90;;;;;;20857788;28;20255;-73
2021/03/24 05:39:13;;;;;;;1.30;1.20;;;9.40;99.90;;;;;;20856821;28;20532;-72
2021/03/24 05:49:26;;;;;;;1.60;1.50;;;9.50;99.90;;;;;;20856792;28;20224;-72
2021/03/24 05:59:38;;;;;;;0.20;0.20;;;9.70;99.90;;;;;;20855680;28;20190;-72
2021/03/24 06:10:30;;;;;;;0.73;0.50;;;9.50;99.90;;;;;;20723136;28;20226;-74
2021/03/24 06:20:42;;;;;;;1.00;0.93;;;9.80;99.90;;;;;;20770337;28;20269;-71
2021/03/24 06:30:54;;;;;;;0.40;0.40;;;9.50;99.90;;;;;;20870590;28;20229;-71
2021/03/24 06:41:38;;;;;;;0.57;0.57;;;9.50;99.90;;;;;;20868938;28;20565;-74
2021/03/24 06:52:18;;;;;;;0.33;0.33;;;10.00;99.90;;;;;;20831329;28;20706;-73
2021/03/24 07:02:37;;;;;;;0.60;0.47;;;10.60;99.90;;;;;;20862640;28;20216;-73
2021/03/24 07:12:55;;;;;;;0.40;0.40;;;11.30;99.90;;;;;;20793367;28;20242;-73
2021/03/24 07:23:31;;;;;;;7.10;2.40;;;11.60;99.90;;;;;;20729922;28;20265;-72
2021/03/24 07:33:39;;;;;;;0.90;0.90;;;12.10;99.90;;;;;;20786148;28;20395;-73
2021/03/24 07:43:54;;;;;;;2.63;2.17;;;12.40;99.90;;;;;;20827932;28;20709;-72
2021/03/24 07:54:07;;;;;;;1.70;1.30;;;12.70;99.90;;;;;;20780041;28;20686;-71
2021/03/24 08:04:36;;;;;;;0.90;0.90;;;13.10;99.90;;;;;;20757544;28;20531;-71
2021/03/24 08:14:57;;;;;;;2.27;2.07;;;13.40;99.90;;;;;;20756327;28;20232;-71
2021/03/24 08:25:24;;;;;;;0.97;0.87;;;13.60;99.90;;;;;;20773595;28;20198;-73
2021/03/24 08:35:56;;;;;;;0.97;0.67;;;13.70;99.90;;;;;;20778502;28;20410;-74
2021/03/24 08:46:17;;;;;;;1.63;1.27;;;13.60;99.90;;;;;;20771964;28;20226;-73
2021/03/24 08:56:27;;;;;;;2.53;0.90;;;13.80;99.90;;;;;;20752388;28;20262;-71
2021/03/24 09:06:39;;;;;;;1.73;1.10;;;13.80;99.90;;;;;;20738642;28;20799;-72
2021/03/24 09:17:26;;;;;;;15.53;1.37;;;13.90;99.90;;;;;;20689243;28;20206;-69
2021/03/24 09:28:15;;;;;;;1.43;0.80;;;14.10;99.90;;;;;;20814504;28;20647;-71
2021/03/24 09:38:21;;;;;;;1.60;1.50;;;14.40;99.90;;;;;;20770289;28;20548;-72
2021/03/24 09:48:25;;;;;;;1.83;1.00;;;14.70;99.90;;;;;;20754172;28;20225;-72
2021/03/24 09:58:56;;;;;;;2.27;1.90;;;15.30;99.90;;;;;;20768703;28;20198;-73
2021/03/24 10:09:08;;;;;;;0.87;0.87;;;15.70;99.90;;;;;;20689327;28;20580;-74
2021/03/24 10:19:20;;;;;;;0.33;0.33;;;15.40;99.90;;;;;;20739989;28;20205;-73
2021/03/24 10:29:29;;;;;;;0.80;0.60;;;15.70;99.90;;;;;;20850382;28;20282;-71
2021/03/24 10:39:36;;;;;;;0.87;0.87;;;16.10;99.90;;;;;;20814472;28;20551;-73
2021/03/24 10:49:49;;;;;;;3.30;0.73;;;16.30;99.90;;;;;;20753156;28;20233;-70
2021/03/24 11:00:06;;;;;;;1.33;0.70;;;17.10;99.90;;;;;;20775558;28;20264;-72
2021/03/24 11:10:37;;;;;;;7.33;3.07;;;17.60;99.90;;;;;;20696569;28;20226;-72
2021/03/24 11:20:44;;;;;;;0.83;0.67;;;18.60;99.90;;;;;;20764884;28;20220;-72
2021/03/24 11:30:51;;;;;;;0.77;0.60;;;19.00;99.90;;;;;;20800230;28;20225;-71
2021/03/24 11:41:06;;;;;;;2.17;0.80;;;19.60;99.90;;;;;;20777103;28;20197;-73
2021/03/24 11:51:26;;;;;;;1.07;0.93;;;20.00;99.90;;;;;;20778711;28;20733;-71
2021/03/24 12:01:48;;;;;;;2.23;1.57;;;20.00;99.90;;;;;;20759691;28;20277;-73
2021/03/24 12:12:16;;;;;;;3.80;3.20;;;20.30;99.90;;;;;;20777782;28;20599;-72
2021/03/24 12:22:27;;;;;;;6.20;2.83;;;20.80;99.90;;;;;;20754222;28;20797;-76
2021/03/24 12:32:36;;;;;;;4.67;4.27;;;21.20;99.90;;;;;;20754190;28;20232;-75
2021/03/24 12:42:40;;;;;;;5.93;3.60;;;21.10;99.90;;;;;;20774052;28;20377;-73
2021/03/24 12:52:48;;;;;;;1.80;1.27;;;21.10;99.90;;;;;;20772701;28;20308;-73
2021/03/24 13:03:21;;;;;;;1.30;1.17;;;22.20;99.90;;;;;;20770050;28;20771;-74
2021/03/24 13:13:46;;;;;;;0.90;0.90;;;21.90;99.90;;;;;;20769068;28;20659;-76
2021/03/24 13:23:56;;;;;;;1.73;1.63;;;22.10;99.90;;;;;;20770927;28;20569;-73
2021/03/24 13:34:38;;;;;;;2.10;1.50;;;22.90;99.90;;;;;;20759898;28;20244;-74
2021/03/24 13:44:57;;;;;;;4.13;1.60;;;23.60;99.90;;;;;;20760426;28;20203;-73
2021/03/24 13:55:14;;;;;;;9.63;1.53;;;23.60;99.90;;;;;;20736909;28;20248;-73
2021/03/24 14:06:04;;;;;;;10.68;0.80;;;23.40;99.90;;;;;;20766824;28;20325;-72
2021/03/24 14:16:18;;;;;;;2.05;1.40;;;24.70;99.90;;;;;;20759608;28;20348;-73
2021/03/24 14:26:28;;;;;;;10.70;1.48;;;24.50;99.90;;;;;;20834697;28;20825;-72
2021/03/24 14:36:40;;;;;;;7.78;0.95;;;24.30;99.90;;;;;;20858864;28;20225;-74
2021/03/24 14:47:26;;;;;;;1.15;1.08;;;23.50;99.90;;;;;;20782789;28;20217;-75
2021/03/24 14:57:34;;;;;;;2.07;1.17;;;23.10;99.90;;;;;;20754027;23;20304;-71
2021/03/24 15:07:42;;;;;;;1.73;1.20;;;23.00;99.90;;;;;;20747285;28;20194;-74
2021/03/24 15:17:56;;;;;;;0.80;0.80;;;22.70;99.90;;;;;;20755117;23;20378;-76
2021/03/24 15:28:10;;;;;;;4.00;1.13;;;22.20;99.90;;;;;;20695929;28;20203;-74
2021/03/24 15:38:34;;;;;;;0.57;0.57;;;22.40;99.90;;;;;;20697621;28;20230;-73
2021/03/24 15:49:02;;;;;;;1.07;0.53;;;22.50;99.90;;;;;;20692578;28;20620;-76
2021/03/24 16:11:17;;;;;;;2.07;1.00;;;21.70;99.90;;;;;;20401821;29;20783;-74
2021/03/24 16:21:27;;;;;;;1.50;1.10;;;20.20;99.90;;;;;;20423725;28;20811;-73
2021/03/24 16:32:05;;;;;;;2.50;1.20;;;19.20;99.90;;;;;;20422900;29;20197;-79
2021/03/24 16:42:34;;;;;;;1.53;1.40;;;18.20;99.90;;;;;;20492523;28;20330;-74
2021/03/24 16:52:53;;;;;;;7.03;1.40;;;17.90;99.90;;;;;;20604328;28;20223;-74
2021/03/24 17:03:06;;;;;;;0.87;0.77;;;17.50;99.90;;;;;;20618425;28;20226;-73
2021/03/24 17:13:18;;;;;;;0.30;0.30;;;17.40;99.90;;;;;;20654904;28;20598;-79
2021/03/24 17:23:28;;;;;;;0.70;0.70;;;17.00;99.90;;;;;;20727798;28;20226;-79
2021/03/24 17:33:45;;;;;;;0.50;0.50;;;16.40;99.90;;;;;;20769637;28;20658;-72
2021/03/24 17:43:50;;;;;;;0.50;0.50;;;16.10;99.90;;;;;;20744040;28;20214;-71
2021/03/24 17:54:09;;;;;;;0.33;0.10;;;15.80;99.90;;;;;;20686549;28;20195;-69
2021/03/24 18:04:21;;;;;;;1.23;1.13;;;15.20;99.90;;;;;;20699863;28;20288;-69
2021/03/24 18:14:30;;;;;;;1.00;0.70;;;15.00;99.90;;;;;;20701118;28;20206;-68
2021/03/24 18:24:33;;;;;;;0.80;0.80;;;14.80;99.90;;;;;;20745863;28;20296;-70
2021/03/24 18:34:43;;;;;;;0.20;0.20;;;14.60;99.90;;;;;;20781144;28;20544;-69
2021/03/24 18:44:50;;;;;;;1.30;1.20;;;14.50;99.90;;;;;;20780064;28;20222;-68
2021/03/24 18:55:15;;;;;;;1.40;0.93;;;14.50;99.90;;;;;;20749514;28;20197;-69
2021/03/24 19:05:31;;;;;;;2.70;1.67;;;14.20;99.90;;;;;;20694074;28;20227;-70
2021/03/24 19:15:39;;;;;;;1.67;1.57;;;14.00;99.90;;;;;;20694318;28;20206;-68
2021/03/24 19:25:42;;;;;;;6.30;1.10;;;13.70;99.90;;;;;;20771817;28;20583;-68
2021/03/24 19:35:47;;;;;;;2.23;1.80;;;13.50;99.90;;;;;;20695872;28;20343;-69
2021/03/24 19:45:51;;;;;;;1.03;1.03;;;13.40;99.90;;;;;;20691988;28;20365;-69
2021/03/24 19:55:56;;;;;;;2.00;1.00;;;13.20;99.90;;;;;;22425986;22;20243;-68
2021/03/24 20:06:10;;;;;;;1.33;1.00;;;13.00;99.90;;;;;;20613377;28;20325;-69
2021/03/24 20:16:16;;;;;;;0.60;0.60;;;12.80;99.90;;;;;;20633392;28;20291;-68
2021/03/24 20:26:19;;;;;;;0.67;0.60;;;12.60;99.90;;;;;;20692518;28;20206;-69
2021/03/24 20:36:33;;;;;;;1.07;0.97;;;12.40;99.90;;;;;;20675752;28;20581;-68
2021/03/24 20:46:39;;;;;;;1.60;1.03;;;12.40;99.90;;;;;;20663307;28;20207;-69
2021/03/24 20:56:43;;;;;;;3.63;1.40;;;12.10;99.90;;;;;;20611387;28;20322;-69
2021/03/24 21:06:46;;;;;;;0.80;0.80;;;12.00;99.90;;;;;;20581531;28;20432;-70
2021/03/24 21:16:51;;;;;;;0.93;0.93;;;11.80;99.90;;;;;;20613192;28;20307;-71
2021/03/24 21:26:55;;;;;;;0.60;0.47;;;11.60;99.90;;;;;;20613476;28;20267;-72
2021/03/24 21:36:58;;;;;;;1.40;1.30;;;11.30;99.90;;;;;;20596545;28;20187;-73
2021/03/24 21:47:01;;;;;;;0.87;0.87;;;11.30;99.90;;;;;;20598408;28;20207;-72
2021/03/24 21:57:08;;;;;;;2.57;1.40;;;11.30;99.90;;;;;;20616014;28;20227;-74
2021/03/24 22:07:11;;;;;;;3.67;1.60;;;11.00;99.90;;;;;;20964760;22;20235;-73
2021/03/24 22:17:36;;;;;;;0.20;0.20;;;10.90;99.90;;;;;;20623621;28;20200;-75
2021/03/24 22:27:48;;;;;;;1.90;1.03;;;10.80;99.90;;;;;;20592656;28;20294;-73
2021/03/24 22:37:57;;;;;;;1.17;1.03;;;10.90;99.90;;;;;;20607509;28;20285;-72
2021/03/24 22:48:27;;;;;;;0.40;0.40;;;10.50;99.90;;;;;;20612410;28;20218;-73
2021/03/24 22:58:41;;;;;;;3.83;2.07;;;10.30;99.90;;;;;;20618720;28;20188;-74
2021/03/24 23:08:44;;;;;;;0.73;0.73;;;10.40;99.90;;;;;;20621131;28;20238;-71
2021/03/24 23:18:56;;;;;;;0.40;0.40;;;10.60;99.90;;;;;;20624143;28;20188;-74
2021/03/24 23:29:06;;;;;;;0.60;0.60;;;10.70;99.90;;;;;;20617675;28;20290;-72
2021/03/24 23:39:10;;;;;;;0.93;0.90;;;10.50;99.90;;;;;;20628437;28;20195;-71
2021/03/24 23:49:13;;;;;;;0.37;0.37;;;10.70;99.90;;;;;;20659024;28;20683;-71
2021/03/24 23:59:21;;;;;;;0.43;0.43;;;10.40;99.90;;;;;;20622690;28;20553;-71
